Time;durP1;ratioP1;P1;durP2;ratioP2;P2;SDS_P1;SDS_P2;PMS_P1;PMS_P2;Temp;Humidity;BMP_temperature;BMP_pressure;BME280_temperature;BME280_humidity;BME280_pressure;Samples;Min_cycle;Max_cycle;Signal;HPM_P1;HPM_P2
2023/06/04 00:01:05;;;;;;;0.50;0.50;;;;;;;;;;5073871;28;20202;-61
2023/06/04 00:03:32;;;;;;;0.40;0.40;;;;;;;;;;5090245;28;20357;-61
2023/06/04 00:06:00;;;;;;;0.60;0.60;;;;;;;;;;5089747;28;20206;-61
2023/06/04 00:08:27;;;;;;;0.50;0.50;;;;;;;;;;5086074;28;20260;-61
2023/06/04 00:10:54;;;;;;;0.60;0.60;;;;;;;;;;5082703;28;20236;-61
2023/06/04 00:13:21;;;;;;;0.57;0.57;;;;;;;;;;5085303;28;20204;-62
2023/06/04 00:15:48;;;;;;;0.50;0.50;;;;;;;;;;5086279;28;20202;-62
2023/06/04 00:18:15;;;;;;;0.52;0.52;;;;;;;;;;5090330;28;20214;-61
2023/06/04 00:20:42;;;;;;;0.55;0.52;;;;;;;;;;5090085;28;20234;-61
2023/06/04 00:23:11;;;;;;;1.10;0.50;;;;;;;;;;5089573;28;20343;-61
2023/06/04 00:25:38;;;;;;;0.73;0.52;;;;;;;;;;5090086;28;20237;-61
2023/06/04 00:28:05;;;;;;;2.08;0.40;;;;;;;;;;5089266;28;20214;-61
2023/06/04 00:30:32;;;;;;;0.55;0.55;;;;;;;;;;5089045;28;20216;-61
2023/06/04 00:32:59;;;;;;;1.17;0.40;;;;;;;;;;5089049;28;20210;-61
2023/06/04 00:35:26;;;;;;;0.47;0.47;;;;;;;;;;5086311;28;20198;-61
2023/06/04 00:37:53;;;;;;;0.30;0.30;;;;;;;;;;5088675;28;20279;-61
2023/06/04 00:40:21;;;;;;;0.50;0.50;;;;;;;;;;5089540;28;20672;-60
2023/06/04 00:42:49;;;;;;;2.17;0.52;;;;;;;;;;5079935;28;20250;-61
2023/06/04 00:45:18;;;;;;;0.50;0.50;;;;;;;;;;5088696;28;20229;-62
2023/06/04 00:47:45;;;;;;;0.50;0.50;;;;;;;;;;5082224;28;20214;-61
2023/06/04 00:50:12;;;;;;;0.90;0.63;;;;;;;;;;5069330;28;20318;-61
2023/06/04 00:52:39;;;;;;;1.15;0.52;;;;;;;;;;5078403;28;20210;-61
2023/06/04 00:55:07;;;;;;;0.80;0.45;;;;;;;;;;5089134;28;20719;-61
2023/06/04 00:57:36;;;;;;;1.45;0.68;;;;;;;;;;5080625;28;20302;-61
2023/06/04 01:00:05;;;;;;;0.82;0.40;;;;;;;;;;5066992;28;20207;-61
2023/06/04 01:02:33;;;;;;;0.50;0.50;;;;;;;;;;5067241;28;20210;-61
2023/06/04 01:05:03;;;;;;;0.68;0.65;;;;;;;;;;5086414;28;20225;-61
2023/06/04 01:07:31;;;;;;;0.35;0.35;;;;;;;;;;5085358;28;20573;-61
2023/06/04 01:09:58;;;;;;;0.40;0.40;;;;;;;;;;5087821;28;20233;-60
2023/06/04 01:12:25;;;;;;;0.50;0.50;;;;;;;;;;5087540;28;20210;-61
2023/06/04 01:14:59;;;;;;;0.82;0.50;;;;;;;;;;5087944;28;20256;-61
2023/06/04 01:17:36;;;;;;;0.63;0.63;;;;;;;;;;5088900;28;20212;-61
2023/06/04 01:20:11;;;;;;;0.60;0.60;;;;;;;;;;5087946;28;20236;-62
2023/06/04 01:22:41;;;;;;;0.60;0.60;;;;;;;;;;5088851;28;20210;-61
2023/06/04 01:25:19;;;;;;;0.60;0.60;;;;;;;;;;5087825;28;20313;-61
2023/06/04 01:27:48;;;;;;;0.30;0.30;;;;;;;;;;5088970;28;20237;-61
2023/06/04 01:30:17;;;;;;;0.40;0.40;;;;;;;;;;5086158;28;20256;-61
2023/06/04 01:32:44;;;;;;;0.50;0.50;;;;;;;;;;5088568;28;20229;-61
2023/06/04 01:35:12;;;;;;;2.17;0.50;;;;;;;;;;5087596;28;20210;-61
2023/06/04 01:37:39;;;;;;;0.60;0.60;;;;;;;;;;5085690;28;20688;-62
2023/06/04 01:40:08;;;;;;;0.68;0.50;;;;;;;;;;5080500;28;20285;-62
2023/06/04 01:42:35;;;;;;;1.80;0.30;;;;;;;;;;5087854;28;20329;-62
2023/06/04 01:45:02;;;;;;;0.40;0.40;;;;;;;;;;5087494;28;20229;-62
2023/06/04 01:47:30;;;;;;;1.30;0.70;;;;;;;;;;5087125;28;20214;-62
2023/06/04 01:49:57;;;;;;;1.17;0.70;;;;;;;;;;5087726;28;20263;-61
2023/06/04 01:52:24;;;;;;;1.48;0.50;;;;;;;;;;5086900;28;20270;-61
2023/06/04 01:54:52;;;;;;;1.67;0.50;;;;;;;;;;5070583;28;20202;-61
2023/06/04 01:57:20;;;;;;;3.28;0.75;;;;;;;;;;5087461;28;20222;-61
2023/06/04 01:59:47;;;;;;;1.02;0.60;;;;;;;;;;5087605;28;20660;-61
2023/06/04 02:02:14;;;;;;;0.43;0.43;;;;;;;;;;5087964;28;20672;-61
2023/06/04 02:04:44;;;;;;;0.60;0.60;;;;;;;;;;5087690;28;20246;-61
2023/06/04 02:07:13;;;;;;;0.40;0.40;;;;;;;;;;5084856;28;20309;-62
2023/06/04 02:09:41;;;;;;;0.60;0.60;;;;;;;;;;5087888;28;20225;-61
2023/06/04 02:12:08;;;;;;;0.60;0.60;;;;;;;;;;5087735;28;20616;-62
2023/06/04 02:14:36;;;;;;;0.45;0.45;;;;;;;;;;5087704;28;20202;-60
2023/06/04 02:17:04;;;;;;;0.60;0.60;;;;;;;;;;5082647;28;20214;-61
2023/06/04 02:19:33;;;;;;;0.53;0.53;;;;;;;;;;5087829;28;20256;-60
2023/06/04 02:22:01;;;;;;;0.60;0.60;;;;;;;;;;5072989;28;20219;-61
2023/06/04 02:24:28;;;;;;;0.50;0.50;;;;;;;;;;5067421;28;20230;-61
2023/06/04 02:26:55;;;;;;;1.67;0.30;;;;;;;;;;5078305;28;20351;-61
2023/06/04 02:29:22;;;;;;;0.30;0.30;;;;;;;;;;5071949;28;20313;-61
2023/06/04 02:31:49;;;;;;;0.57;0.40;;;;;;;;;;5069924;28;20218;-61
2023/06/04 02:34:16;;;;;;;0.40;0.40;;;;;;;;;;5075874;28;20200;-61
2023/06/04 02:36:50;;;;;;;1.88;0.82;;;;;;;;;;5080285;28;20219;-61
2023/06/04 02:39:19;;;;;;;0.68;0.68;;;;;;;;;;5086514;28;20210;-61
2023/06/04 02:41:47;;;;;;;2.33;0.60;;;;;;;;;;5087341;28;20210;-61
2023/06/04 02:44:14;;;;;;;1.43;0.47;;;;;;;;;;5086910;28;20275;-61
2023/06/04 02:46:41;;;;;;;0.50;0.50;;;;;;;;;;5082568;28;20297;-61
2023/06/04 02:49:08;;;;;;;0.90;0.40;;;;;;;;;;5082822;28;20202;-61
2023/06/04 02:51:35;;;;;;;0.45;0.45;;;;;;;;;;5087276;28;20240;-61
2023/06/04 02:54:02;;;;;;;0.40;0.40;;;;;;;;;;5087298;28;20206;-61
2023/06/04 02:56:30;;;;;;;0.50;0.30;;;;;;;;;;5086490;28;20218;-62
2023/06/04 02:58:57;;;;;;;0.60;0.60;;;;;;;;;;5086601;28;20257;-62
2023/06/04 03:01:25;;;;;;;0.50;0.50;;;;;;;;;;5086184;28;20215;-62
2023/06/04 03:03:52;;;;;;;0.50;0.50;;;;;;;;;;5086294;28;20305;-61
2023/06/04 03:06:20;;;;;;;0.55;0.55;;;;;;;;;;5086329;28;20814;-61
2023/06/04 03:08:47;;;;;;;0.50;0.40;;;;;;;;;;5086663;28;20294;-61
2023/06/04 03:11:14;;;;;;;0.97;0.73;;;;;;;;;;5087235;28;20248;-61
2023/06/04 03:13:43;;;;;;;1.13;0.57;;;;;;;;;;5086969;28;20206;-61
2023/06/04 03:16:10;;;;;;;0.73;0.60;;;;;;;;;;5074818;28;20654;-61
2023/06/04 03:18:38;;;;;;;0.30;0.30;;;;;;;;;;5083433;28;20568;-62
2023/06/04 03:21:05;;;;;;;2.50;0.70;;;;;;;;;;5090591;28;20233;-62
2023/06/04 03:23:32;;;;;;;0.97;0.37;;;;;;;;;;5090598;28;20297;-61
2023/06/04 03:25:59;;;;;;;1.65;0.60;;;;;;;;;;5091009;28;20230;-62
2023/06/04 03:28:26;;;;;;;0.43;0.43;;;;;;;;;;5088442;28;20206;-62
2023/06/04 03:30:54;;;;;;;0.87;0.70;;;;;;;;;;5089828;28;20214;-62
2023/06/04 03:33:21;;;;;;;0.33;0.33;;;;;;;;;;5089983;28;20297;-61
2023/06/04 03:35:49;;;;;;;0.10;0.10;;;;;;;;;;5090819;28;20206;-62
2023/06/04 03:38:16;;;;;;;0.50;0.50;;;;;;;;;;5090024;28;20213;-62
2023/06/04 03:40:44;;;;;;;0.67;0.60;;;;;;;;;;5101280;28;20297;-62
2023/06/04 03:43:11;;;;;;;0.50;0.50;;;;;;;;;;5088089;28;20270;-61
2023/06/04 03:45:38;;;;;;;1.03;0.77;;;;;;;;;;5069873;28;20227;-61
2023/06/04 03:48:06;;;;;;;0.57;0.57;;;;;;;;;;5077804;28;20210;-61
2023/06/04 03:50:33;;;;;;;0.40;0.40;;;;;;;;;;5089792;28;20210;-61
2023/06/04 03:53:00;;;;;;;4.90;0.80;;;;;;;;;;5090076;28;20709;-61
2023/06/04 03:55:27;;;;;;;0.50;0.50;;;;;;;;;;5072178;28;20282;-61
2023/06/04 03:57:54;;;;;;;0.50;0.50;;;;;;;;;;5089260;28;20210;-61
2023/06/04 04:00:21;;;;;;;1.33;0.80;;;;;;;;;;5088889;28;20279;-61
2023/06/04 04:02:50;;;;;;;0.60;0.60;;;;;;;;;;5090403;28;20214;-61
2023/06/04 04:05:18;;;;;;;1.17;0.80;;;;;;;;;;5074619;28;20223;-61
2023/06/04 04:07:46;;;;;;;0.67;0.60;;;;;;;;;;5069991;28;20206;-62
2023/06/04 04:10:13;;;;;;;0.70;0.70;;;;;;;;;;5089379;28;20537;-61
2023/06/04 04:12:41;;;;;;;1.73;0.60;;;;;;;;;;5088660;28;20259;-61
2023/06/04 04:15:08;;;;;;;0.40;0.40;;;;;;;;;;5089765;28;20313;-61
2023/06/04 04:17:35;;;;;;;1.23;0.80;;;;;;;;;;5090505;28;20264;-62
2023/06/04 04:20:05;;;;;;;1.03;0.80;;;;;;;;;;5088882;28;20229;-62
2023/06/04 04:22:34;;;;;;;1.67;0.80;;;;;;;;;;5089911;28;20210;-62
2023/06/04 04:25:02;;;;;;;0.80;0.80;;;;;;;;;;5076075;28;20230;-62
2023/06/04 04:27:31;;;;;;;0.93;0.57;;;;;;;;;;5082609;28;20696;-62
2023/06/04 04:30:00;;;;;;;0.65;0.60;;;;;;;;;;5088953;28;20260;-62
2023/06/04 04:32:27;;;;;;;0.70;0.70;;;;;;;;;;5088487;28;20240;-62
2023/06/04 04:34:57;;;;;;;0.70;0.70;;;;;;;;;;5089670;28;20264;-62
2023/06/04 04:37:24;;;;;;;7.63;0.95;;;;;;;;;;5087440;28;20260;-62
2023/06/04 04:39:52;;;;;;;1.17;0.70;;;;;;;;;;5082038;28;20206;-62
2023/06/04 04:42:19;;;;;;;0.85;0.40;;;;;;;;;;5098062;28;20357;-62
2023/06/04 04:44:48;;;;;;;0.60;0.60;;;;;;;;;;5089361;28;20332;-62
2023/06/04 04:47:15;;;;;;;0.60;0.60;;;;;;;;;;5080026;28;20210;-62
2023/06/04 04:49:42;;;;;;;2.53;0.68;;;;;;;;;;5079861;28;20206;-62
2023/06/04 04:52:09;;;;;;;0.77;0.77;;;;;;;;;;5082889;28;20199;-62
2023/06/04 04:54:36;;;;;;;0.68;0.68;;;;;;;;;;5071979;28;20612;-62
2023/06/04 04:57:07;;;;;;;1.20;0.77;;;;;;;;;;5089009;28;20210;-62
2023/06/04 04:59:34;;;;;;;0.47;0.47;;;;;;;;;;5089578;28;20210;-63
2023/06/04 05:02:02;;;;;;;4.88;0.70;;;;;;;;;;5072290;28;20207;-62
2023/06/04 05:04:29;;;;;;;0.73;0.73;;;;;;;;;;5069371;28;20215;-62
2023/06/04 05:06:56;;;;;;;0.50;0.50;;;;;;;;;;5088444;28;20198;-62
2023/06/04 05:09:23;;;;;;;0.88;0.88;;;;;;;;;;5088493;28;20209;-62
2023/06/04 05:11:51;;;;;;;0.43;0.43;;;;;;;;;;5089318;28;20625;-62
2023/06/04 05:14:19;;;;;;;1.48;0.68;;;;;;;;;;5089966;28;20223;-62
2023/06/04 05:16:48;;;;;;;0.85;0.63;;;;;;;;;;5073835;28;20261;-62
2023/06/04 05:19:15;;;;;;;0.95;0.77;;;;;;;;;;5088631;28;20237;-62
2023/06/04 05:21:43;;;;;;;0.70;0.70;;;;;;;;;;5088544;28;20709;-62
2023/06/04 05:24:10;;;;;;;2.15;0.90;;;;;;;;;;5089123;28;20272;-62
2023/06/04 05:26:39;;;;;;;4.03;0.70;;;;;;;;;;5088203;28;20321;-62
2023/06/04 05:29:06;;;;;;;1.10;0.52;;;;;;;;;;5088443;28;20228;-62
2023/06/04 05:31:36;;;;;;;0.50;0.50;;;;;;;;;;5078086;28;20211;-62
2023/06/04 05:34:04;;;;;;;0.75;0.75;;;;;;;;;;5069595;28;20195;-62
2023/06/04 05:36:31;;;;;;;2.47;0.68;;;;;;;;;;5068459;28;20202;-62
2023/06/04 05:38:59;;;;;;;0.80;0.80;;;;;;;;;;5069895;28;20207;-62
2023/06/04 05:41:27;;;;;;;0.70;0.70;;;;;;;;;;5085094;28;20216;-60
2023/06/04 05:43:54;;;;;;;0.75;0.47;;;;;;;;;;5088085;28;20261;-60
2023/06/04 05:46:21;;;;;;;0.43;0.43;;;;;;;;;;5088477;28;20299;-60
2023/06/04 05:48:50;;;;;;;0.50;0.50;;;;;;;;;;5081179;28;20236;-60
2023/06/04 05:51:17;;;;;;;1.88;0.70;;;;;;;;;;5072137;28;20227;-60
2023/06/04 05:53:44;;;;;;;0.50;0.50;;;;;;;;;;5076415;28;20206;-59
2023/06/04 05:56:12;;;;;;;0.70;0.70;;;;;;;;;;5087423;28;20271;-60
2023/06/04 05:58:39;;;;;;;0.50;0.50;;;;;;;;;;5087629;28;20217;-59
2023/06/04 06:01:06;;;;;;;0.45;0.45;;;;;;;;;;5087319;28;20660;-59
2023/06/04 06:03:33;;;;;;;2.42;0.50;;;;;;;;;;5087887;28;20714;-59
2023/06/04 06:06:01;;;;;;;1.63;0.93;;;;;;;;;;5079792;28;20227;-59
2023/06/04 06:08:28;;;;;;;0.57;0.57;;;;;;;;;;5083489;28;20202;-59
2023/06/04 06:10:56;;;;;;;0.63;0.60;;;;;;;;;;5100413;28;20221;-59
2023/06/04 06:13:23;;;;;;;0.80;0.80;;;;;;;;;;5088295;28;20301;-59
2023/06/04 06:15:50;;;;;;;0.60;0.60;;;;;;;;;;5088309;28;20289;-59
2023/06/04 06:18:17;;;;;;;0.95;0.57;;;;;;;;;;5080296;28;20276;-59
2023/06/04 06:20:44;;;;;;;0.40;0.40;;;;;;;;;;5067866;28;20231;-60
2023/06/04 06:23:14;;;;;;;0.55;0.55;;;;;;;;;;5068287;28;20207;-59
2023/06/04 06:25:41;;;;;;;0.38;0.38;;;;;;;;;;5070331;28;20228;-59
2023/06/04 06:28:08;;;;;;;0.40;0.40;;;;;;;;;;5080668;28;20203;-59
2023/06/04 06:30:35;;;;;;;0.70;0.70;;;;;;;;;;5076407;28;20206;-59
2023/06/04 06:33:02;;;;;;;0.93;0.60;;;;;;;;;;5084843;28;20202;-59
2023/06/04 06:35:29;;;;;;;1.65;0.60;;;;;;;;;;5086114;28;20706;-59
2023/06/04 06:37:56;;;;;;;0.60;0.60;;;;;;;;;;5086989;28;20439;-59
2023/06/04 06:40:25;;;;;;;0.47;0.47;;;;;;;;;;5085814;28;20320;-58
2023/06/04 06:42:52;;;;;;;0.50;0.50;;;;;;;;;;5071032;28;20250;-62
2023/06/04 06:45:19;;;;;;;0.57;0.57;;;;;;;;;;5086545;28;20206;-59
2023/06/04 06:47:46;;;;;;;0.70;0.70;;;;;;;;;;5087709;28;20297;-60
2023/06/04 06:50:13;;;;;;;0.73;0.73;;;;;;;;;;5079342;28;20222;-60
2023/06/04 06:52:40;;;;;;;0.60;0.60;;;;;;;;;;5082552;28;20214;-59
2023/06/04 06:55:07;;;;;;;0.63;0.63;;;;;;;;;;5089537;28;20214;-61
2023/06/04 06:57:36;;;;;;;0.63;0.60;;;;;;;;;;5089095;28;20206;-62
2023/06/04 07:00:04;;;;;;;2.38;0.40;;;;;;;;;;5074669;28;20741;-62
2023/06/04 07:02:31;;;;;;;0.50;0.50;;;;;;;;;;5082058;28;20207;-62
2023/06/04 07:04:58;;;;;;;0.60;0.60;;;;;;;;;;5071351;28;20214;-62
2023/06/04 07:07:26;;;;;;;0.70;0.70;;;;;;;;;;5074251;28;20295;-62
2023/06/04 07:09:53;;;;;;;3.88;0.82;;;;;;;;;;5095302;28;20220;-62
2023/06/04 07:12:20;;;;;;;0.63;0.60;;;;;;;;;;5099496;28;20210;-62
2023/06/04 07:14:48;;;;;;;0.50;0.50;;;;;;;;;;5091939;28;20206;-62
2023/06/04 07:17:15;;;;;;;0.68;0.68;;;;;;;;;;5090082;28;20664;-62
2023/06/04 07:19:42;;;;;;;0.68;0.50;;;;;;;;;;5089000;28;20214;-62
2023/06/04 07:22:10;;;;;;;0.47;0.47;;;;;;;;;;5080849;28;20230;-62
2023/06/04 07:24:37;;;;;;;0.50;0.50;;;;;;;;;;5091375;28;20211;-62
2023/06/04 07:27:11;;;;;;;0.60;0.60;;;;;;;;;;5085050;28;20280;-63
2023/06/04 07:29:38;;;;;;;0.32;0.32;;;;;;;;;;5075497;28;20203;-62
2023/06/04 07:32:06;;;;;;;0.52;0.50;;;;;;;;;;5070447;28;20469;-62
2023/06/04 07:34:33;;;;;;;0.95;0.50;;;;;;;;;;5070597;28;20301;-63
2023/06/04 07:37:00;;;;;;;0.95;0.70;;;;;;;;;;5070789;28;20625;-62
2023/06/04 07:39:27;;;;;;;0.70;0.70;;;;;;;;;;5089537;28;20214;-62
2023/06/04 07:41:54;;;;;;;0.95;0.60;;;;;;;;;;5102469;28;20218;-62
2023/06/04 07:44:22;;;;;;;0.70;0.70;;;;;;;;;;5090976;28;20210;-62
2023/06/04 07:46:49;;;;;;;0.50;0.50;;;;;;;;;;5090678;28;20245;-63
2023/06/04 07:49:17;;;;;;;2.85;0.70;;;;;;;;;;5090072;28;20305;-63
2023/06/04 07:51:44;;;;;;;0.30;0.30;;;;;;;;;;5091106;28;20213;-63
2023/06/04 07:54:13;;;;;;;0.50;0.50;;;;;;;;;;5091063;28;20221;-62
2023/06/04 07:56:40;;;;;;;0.57;0.57;;;;;;;;;;5082355;28;20214;-62
2023/06/04 07:59:07;;;;;;;0.35;0.35;;;;;;;;;;5084917;28;20214;-63
2023/06/04 08:01:34;;;;;;;0.40;0.40;;;;;;;;;;5087720;28;20324;-63
2023/06/04 08:04:01;;;;;;;2.05;0.50;;;;;;;;;;5090584;28;20214;-63
2023/06/04 08:06:29;;;;;;;0.40;0.40;;;;;;;;;;5089739;28;20299;-63
2023/06/04 08:08:56;;;;;;;8.80;0.90;;;;;;;;;;5089224;28;20202;-63
2023/06/04 08:11:24;;;;;;;0.60;0.60;;;;;;;;;;5085244;28;20211;-62
2023/06/04 08:13:51;;;;;;;0.47;0.47;;;;;;;;;;5082937;28;20582;-63
2023/06/04 08:16:18;;;;;;;0.30;0.30;;;;;;;;;;5069953;28;20207;-62
2023/06/04 08:18:45;;;;;;;0.60;0.60;;;;;;;;;;5084878;28;20209;-62
2023/06/04 08:21:12;;;;;;;0.60;0.52;;;;;;;;;;5089356;28;20761;-62
2023/06/04 08:23:41;;;;;;;1.02;0.40;;;;;;;;;;5089198;28;20210;-62
2023/06/04 08:26:08;;;;;;;0.40;0.40;;;;;;;;;;5087999;28;20230;-63
2023/06/04 08:28:35;;;;;;;0.60;0.60;;;;;;;;;;5087922;28;20696;-63
2023/06/04 08:31:02;;;;;;;0.50;0.50;;;;;;;;;;5074142;28;20210;-64
2023/06/04 08:33:29;;;;;;;0.70;0.70;;;;;;;;;;5081544;28;20617;-63
2023/06/04 08:35:56;;;;;;;0.50;0.50;;;;;;;;;;5083787;28;20203;-62
2023/06/04 08:38:23;;;;;;;2.55;0.75;;;;;;;;;;5078525;28;20202;-62
2023/06/04 08:40:54;;;;;;;0.57;0.57;;;;;;;;;;5081372;28;20211;-62
2023/06/04 08:43:21;;;;;;;1.10;0.90;;;;;;;;;;5086982;28;20247;-62
2023/06/04 08:45:50;;;;;;;0.52;0.52;;;;;;;;;;5089374;28;20206;-63
2023/06/04 08:48:20;;;;;;;0.50;0.50;;;;;;;;;;5089809;28;20301;-63
2023/06/04 08:50:47;;;;;;;1.17;1.17;;;;;;;;;;5089130;28;20230;-62
2023/06/04 08:53:15;;;;;;;0.40;0.40;;;;;;;;;;5089535;28;20217;-63
2023/06/04 08:55:42;;;;;;;0.65;0.45;;;;;;;;;;5089631;28;20217;-63
2023/06/04 08:58:12;;;;;;;0.60;0.60;;;;;;;;;;5086907;28;20259;-63
2023/06/04 09:00:39;;;;;;;0.50;0.50;;;;;;;;;;5086835;28;20218;-62
2023/06/04 09:03:07;;;;;;;0.50;0.50;;;;;;;;;;5084983;28;20217;-57
2023/06/04 09:05:34;;;;;;;0.60;0.60;;;;;;;;;;5084839;28;20640;-58
2023/06/04 09:08:02;;;;;;;0.68;0.68;;;;;;;;;;5082484;28;20245;-59
2023/06/04 09:10:30;;;;;;;0.32;0.32;;;;;;;;;;5076788;28;20297;-59
2023/06/04 09:12:58;;;;;;;0.68;0.68;;;;;;;;;;5076839;28;20285;-59
2023/06/04 09:15:27;;;;;;;0.63;0.50;;;;;;;;;;5074425;28;20269;-61
2023/06/04 09:17:54;;;;;;;0.70;0.70;;;;;;;;;;5085493;28;20445;-63
2023/06/04 09:20:21;;;;;;;36.35;12.57;;;;;;;;;;5083352;28;20226;-65
2023/06/04 09:22:48;;;;;;;0.65;0.65;;;;;;;;;;5073221;28;20236;-63
2023/06/04 09:25:21;;;;;;;3.67;1.48;;;;;;;;;;5089522;28;20603;-60
2023/06/04 09:27:48;;;;;;;16.40;5.93;;;;;;;;;;5072567;28;20231;-61
2023/06/04 09:30:16;;;;;;;0.45;0.40;;;;;;;;;;5071826;28;20298;-60
2023/06/04 09:32:44;;;;;;;0.70;0.70;;;;;;;;;;5068366;28;20261;-58
2023/06/04 09:35:12;;;;;;;0.60;0.60;;;;;;;;;;5086185;28;20210;-58
2023/06/04 09:37:39;;;;;;;0.52;0.52;;;;;;;;;;5082150;28;20317;-60
2023/06/04 09:40:07;;;;;;;2.70;0.60;;;;;;;;;;5093897;28;20278;-59
2023/06/04 09:42:43;;;;;;;0.80;0.80;;;;;;;;;;5094733;28;20302;-59
2023/06/04 09:45:10;;;;;;;0.50;0.50;;;;;;;;;;5087855;28;20218;-59
2023/06/04 09:47:46;;;;;;;2.72;1.77;;;;;;;;;;5084302;28;20230;-60
2023/06/04 09:50:13;;;;;;;0.82;0.82;;;;;;;;;;5082500;28;20214;-59
2023/06/04 09:52:40;;;;;;;0.52;0.52;;;;;;;;;;5085095;28;20264;-59
2023/06/04 09:55:18;;;;;;;1.00;0.60;;;;;;;;;;5088375;28;20301;-59
2023/06/04 09:57:47;;;;;;;0.40;0.40;;;;;;;;;;5088135;28;20237;-59
2023/06/04 10:00:15;;;;;;;0.88;0.88;;;;;;;;;;5088486;28;20214;-58
2023/06/04 10:02:44;;;;;;;0.80;0.80;;;;;;;;;;5086492;28;20210;-59
2023/06/04 10:05:14;;;;;;;0.57;0.57;;;;;;;;;;5085084;28;20219;-60
2023/06/04 10:07:41;;;;;;;0.70;0.70;;;;;;;;;;5084668;28;20317;-60
2023/06/04 10:10:09;;;;;;;0.70;0.70;;;;;;;;;;5085559;28;20210;-59
2023/06/04 10:12:39;;;;;;;1.02;0.47;;;;;;;;;;5085779;28;20676;-59
2023/06/04 10:15:07;;;;;;;0.38;0.38;;;;;;;;;;5073890;28;20203;-58
2023/06/04 10:17:34;;;;;;;1.90;1.58;;;;;;;;;;5066182;28;20231;-58
2023/06/04 10:20:05;;;;;;;1.98;0.68;;;;;;;;;;5080849;28;20204;-58
2023/06/04 10:22:34;;;;;;;0.57;0.57;;;;;;;;;;5063100;28;20206;-58
2023/06/04 10:25:02;;;;;;;0.43;0.43;;;;;;;;;;5066424;28;20214;-59
2023/06/04 10:27:31;;;;;;;1.40;0.63;;;;;;;;;;5079962;28;20921;-59
2023/06/04 10:29:58;;;;;;;0.43;0.43;;;;;;;;;;5087075;28;20217;-59
2023/06/04 10:32:28;;;;;;;0.35;0.35;;;;;;;;;;5087134;28;20261;-59
2023/06/04 10:34:57;;;;;;;0.60;0.60;;;;;;;;;;5085590;28;20221;-62
2023/06/04 10:37:24;;;;;;;0.65;0.65;;;;;;;;;;5079749;28;20863;-59
2023/06/04 10:39:54;;;;;;;0.77;0.73;;;;;;;;;;5083978;28;20298;-60
2023/06/04 10:42:21;;;;;;;0.47;0.47;;;;;;;;;;5086879;28;20234;-59
2023/06/04 10:44:49;;;;;;;0.60;0.60;;;;;;;;;;5087291;28;20303;-60
2023/06/04 10:47:20;;;;;;;0.90;0.75;;;;;;;;;;5069761;28;20227;-59
2023/06/04 10:49:47;;;;;;;0.40;0.40;;;;;;;;;;5067116;28;20490;-60
2023/06/04 10:52:14;;;;;;;0.60;0.60;;;;;;;;;;5066987;28;20760;-60
2023/06/04 10:54:42;;;;;;;0.60;0.60;;;;;;;;;;5065244;28;20215;-60
2023/06/04 10:57:14;;;;;;;1.30;0.57;;;;;;;;;;5066758;28;20766;-59
2023/06/04 10:59:41;;;;;;;0.65;0.65;;;;;;;;;;5077332;28;20273;-59
2023/06/04 11:02:08;;;;;;;0.60;0.60;;;;;;;;;;5081708;28;20207;-59
2023/06/04 11:04:37;;;;;;;1.10;0.57;;;;;;;;;;5071042;28;20199;-63
2023/06/04 11:07:08;;;;;;;0.60;0.60;;;;;;;;;;5070158;28;20305;-60
2023/06/04 11:09:35;;;;;;;0.70;0.70;;;;;;;;;;5088164;28;20218;-59
2023/06/04 11:12:03;;;;;;;0.55;0.55;;;;;;;;;;5095958;28;20614;-60
2023/06/04 11:14:39;;;;;;;0.57;0.57;;;;;;;;;;5087284;28;20206;-59
2023/06/04 11:17:13;;;;;;;0.45;0.45;;;;;;;;;;5087599;28;20233;-59
2023/06/04 11:19:40;;;;;;;1.70;0.73;;;;;;;;;;5085609;28;20214;-60
2023/06/04 11:22:07;;;;;;;0.77;0.77;;;;;;;;;;5075546;28;20309;-60
2023/06/04 11:24:34;;;;;;;0.60;0.57;;;;;;;;;;5064612;28;20207;-60
2023/06/04 11:27:02;;;;;;;0.68;0.40;;;;;;;;;;5065173;28;20322;-59
2023/06/04 11:29:29;;;;;;;0.70;0.70;;;;;;;;;;5083673;28;20234;-60
2023/06/04 11:31:58;;;;;;;0.40;0.40;;;;;;;;;;5086845;28;20264;-60
2023/06/04 11:34:25;;;;;;;0.43;0.43;;;;;;;;;;5083483;28;20976;-59
2023/06/04 11:36:53;;;;;;;0.88;0.88;;;;;;;;;;5086933;28;20217;-59
2023/06/04 11:39:20;;;;;;;0.73;0.73;;;;;;;;;;5076614;28;20343;-59
2023/06/04 11:41:47;;;;;;;14.65;0.82;;;;;;;;;;5085143;28;20276;-59
2023/06/04 11:44:15;;;;;;;0.55;0.55;;;;;;;;;;5077503;28;20919;-60
2023/06/04 11:46:43;;;;;;;1.77;0.70;;;;;;;;;;5080893;28;20203;-59
2023/06/04 11:49:13;;;;;;;0.63;0.63;;;;;;;;;;5078011;28;20214;-61
2023/06/04 11:51:40;;;;;;;0.63;0.60;;;;;;;;;;5089392;28;20214;-61
2023/06/04 11:54:07;;;;;;;0.70;0.70;;;;;;;;;;5090855;28;20288;-60
2023/06/04 11:56:35;;;;;;;1.38;0.82;;;;;;;;;;5082386;28;20214;-60
2023/06/04 11:59:02;;;;;;;2.75;0.50;;;;;;;;;;5090328;28;20202;-59
2023/06/04 12:01:30;;;;;;;0.55;0.55;;;;;;;;;;5074597;28;20207;-60
2023/06/04 12:03:57;;;;;;;0.50;0.50;;;;;;;;;;5076685;28;20202;-59
2023/06/04 12:06:25;;;;;;;0.50;0.50;;;;;;;;;;5089420;28;20717;-59
2023/06/04 12:08:53;;;;;;;0.43;0.43;;;;;;;;;;5078387;28;20226;-59
2023/06/04 12:11:28;;;;;;;0.73;0.73;;;;;;;;;;5087713;28;20214;-59
2023/06/04 12:13:55;;;;;;;1.45;0.57;;;;;;;;;;5086428;28;20221;-59
2023/06/04 12:16:23;;;;;;;0.60;0.60;;;;;;;;;;5084774;28;20210;-60
2023/06/04 12:18:50;;;;;;;3.00;0.60;;;;;;;;;;5086044;28;20666;-59
2023/06/04 12:21:19;;;;;;;0.40;0.40;;;;;;;;;;5087893;28;20234;-59
2023/06/04 12:23:47;;;;;;;0.60;0.60;;;;;;;;;;5086708;28;20314;-59
2023/06/04 12:26:28;;;;;;;0.70;0.70;;;;;;;;;;5088717;28;20320;-60
2023/06/04 12:29:00;;;;;;;1.05;0.70;;;;;;;;;;5090082;28;20308;-60
2023/06/04 12:31:31;;;;;;;0.38;0.38;;;;;;;;;;5077770;28;20248;-59
2023/06/04 12:33:59;;;;;;;0.70;0.70;;;;;;;;;;5079689;28;20202;-60
2023/06/04 12:36:26;;;;;;;2.28;0.60;;;;;;;;;;5074362;28;20206;-59
2023/06/04 12:38:55;;;;;;;1.05;0.63;;;;;;;;;;5088998;28;20225;-59
2023/06/04 12:41:22;;;;;;;0.60;0.60;;;;;;;;;;5084184;28;20222;-59
2023/06/04 12:43:49;;;;;;;0.77;0.77;;;;;;;;;;5077219;28;20234;-59
2023/06/04 12:46:16;;;;;;;0.73;0.73;;;;;;;;;;5071790;28;20207;-60
2023/06/04 12:48:43;;;;;;;1.30;0.73;;;;;;;;;;5084185;28;20225;-59
2023/06/04 12:51:11;;;;;;;0.60;0.60;;;;;;;;;;5083989;28;20210;-63
2023/06/04 12:53:40;;;;;;;2.92;0.60;;;;;;;;;;5081413;28;20300;-63
2023/06/04 12:56:08;;;;;;;1.08;0.68;;;;;;;;;;5087137;28;20249;-63
2023/06/04 12:58:35;;;;;;;0.60;0.60;;;;;;;;;;5089657;28;20206;-63
2023/06/04 13:01:02;;;;;;;0.77;0.77;;;;;;;;;;5086673;28;20546;-64
2023/06/04 13:03:31;;;;;;;0.50;0.50;;;;;;;;;;5086952;28;20211;-64
2023/06/04 13:05:58;;;;;;;0.70;0.70;;;;;;;;;;5084548;28;20769;-64
2023/06/04 13:08:25;;;;;;;0.60;0.60;;;;;;;;;;5075876;28;20241;-63
2023/06/04 13:10:52;;;;;;;0.52;0.52;;;;;;;;;;5079073;28;20921;-64
2023/06/04 13:13:21;;;;;;;0.60;0.60;;;;;;;;;;5079132;28;20260;-63
2023/06/04 13:15:48;;;;;;;0.95;0.50;;;;;;;;;;5078587;28;20198;-62
2023/06/04 13:18:15;;;;;;;0.77;0.77;;;;;;;;;;5085649;28;20210;-62
2023/06/04 13:20:42;;;;;;;0.50;0.50;;;;;;;;;;5082290;28;20771;-62
2023/06/04 13:23:11;;;;;;;1.55;0.50;;;;;;;;;;5088578;28;20684;-62
2023/06/04 13:25:39;;;;;;;0.40;0.40;;;;;;;;;;5088557;28;20206;-62
2023/06/04 13:28:07;;;;;;;0.45;0.45;;;;;;;;;;5088608;28;20253;-62
2023/06/04 13:30:36;;;;;;;0.60;0.60;;;;;;;;;;5078189;28;20211;-63
2023/06/04 13:33:03;;;;;;;0.70;0.70;;;;;;;;;;5087845;28;20305;-62
2023/06/04 13:35:31;;;;;;;0.60;0.50;;;;;;;;;;5088349;28;20283;-64
2023/06/04 13:37:58;;;;;;;0.60;0.60;;;;;;;;;;5088427;28;20249;-62
2023/06/04 13:40:25;;;;;;;0.60;0.60;;;;;;;;;;5082683;28;20649;-62
2023/06/04 13:42:52;;;;;;;1.67;0.70;;;;;;;;;;5071390;28;20238;-62
2023/06/04 13:45:20;;;;;;;0.60;0.60;;;;;;;;;;5077544;28;20230;-61
2023/06/04 13:47:48;;;;;;;0.65;0.65;;;;;;;;;;5072539;28;20245;-62
2023/06/04 13:50:15;;;;;;;0.88;0.73;;;;;;;;;;5085617;28;20202;-64
2023/06/04 13:52:43;;;;;;;0.65;0.65;;;;;;;;;;5086360;28;20807;-63
2023/06/04 13:55:11;;;;;;;0.50;0.50;;;;;;;;;;5083662;28;20218;-64
2023/06/04 13:57:38;;;;;;;1.65;0.65;;;;;;;;;;5082397;28;20206;-63
2023/06/04 14:00:06;;;;;;;0.50;0.50;;;;;;;;;;5067951;28;20268;-63
2023/06/04 14:02:33;;;;;;;1.75;0.43;;;;;;;;;;5067141;28;20210;-63
2023/06/04 14:05:02;;;;;;;1.95;0.70;;;;;;;;;;5068263;28;20256;-63
2023/06/04 14:07:30;;;;;;;1.45;0.50;;;;;;;;;;5070489;28;20700;-63
2023/06/04 14:09:57;;;;;;;0.80;0.80;;;;;;;;;;5084801;28;20202;-59
2023/06/04 14:12:24;;;;;;;0.60;0.60;;;;;;;;;;5083811;28;20214;-60
2023/06/04 14:14:51;;;;;;;0.65;0.65;;;;;;;;;;5086072;28;20207;-61
2023/06/04 14:17:18;;;;;;;1.35;0.60;;;;;;;;;;5084645;28;20206;-62
2023/06/04 14:19:46;;;;;;;0.60;0.60;;;;;;;;;;5067229;28;20218;-60
2023/06/04 14:22:14;;;;;;;0.80;0.80;;;;;;;;;;5077707;28;20222;-60
2023/06/04 14:24:42;;;;;;;0.40;0.40;;;;;;;;;;5076041;28;20652;-60
2023/06/04 14:27:09;;;;;;;0.55;0.50;;;;;;;;;;5084892;28;20289;-61
2023/06/04 14:29:37;;;;;;;0.60;0.60;;;;;;;;;;5067830;28;20889;-60
2023/06/04 14:32:04;;;;;;;0.52;0.52;;;;;;;;;;5078604;28;20921;-61
2023/06/04 14:34:31;;;;;;;0.47;0.47;;;;;;;;;;5082935;28;20639;-60
2023/06/04 14:36:59;;;;;;;0.65;0.65;;;;;;;;;;5084143;28;20568;-61
2023/06/04 14:39:28;;;;;;;0.70;0.70;;;;;;;;;;5066254;28;20298;-61
2023/06/04 14:41:55;;;;;;;0.63;0.63;;;;;;;;;;5097024;28;20218;-60
2023/06/04 14:44:22;;;;;;;0.70;0.70;;;;;;;;;;5086104;28;20210;-60
2023/06/04 14:46:51;;;;;;;0.77;0.77;;;;;;;;;;5086243;28;20223;-60